Smoke Signal, Arizona
Current Conditions -  °F | °C
As of 8:53 AM on Sunday 21 Dec 2014 (Local Time) from KRQE Reporting Station
Clear Clear  
Wind Chill: 32°   Ceiling: Unl
Heat Index: 32°   Visibility: 10mi
Dew Point: 25°   Wind: 0mph
Humidity: 75%   Direction: NA
Pressure: 30.12"   Gusts: NA
Location:  36.1012°N, 109.584°W
Report Text: KRQE 211553Z AUTO 00000KT 10SM CLR 00/M04 A3012 RMK AO2 SLP182 T00001039 TSNO
Loading
Personal Weather Stations






























Interactive Weather Map New forecast layout! Learn more

10-Day Weather Forecast

Advertisements
Track Severe Weather on mobile